Flight Track Log - Related Links

Times and Time Zones

All times are in EDT time to prevent confusion due to time zone crossing. See the FDX1938 flight status page for this flight to view local times or setup timezone preferences in your user account.

Time Position Orientation Groundspeed Altitude Reporting Facility
EDT Latitude Longitude Course Direction KTS MPH feet Rate Location/Type
Thu 11:56:16 PM 39.7850 -82.9620 220° Southwest 3,000  Level FlightAware ADS-B
Thu 11:56:36 PM 39.7690 -82.9800 221° Southwest 164 189 3,800 2,069 Climbing FlightAware ADS-B
Thu 11:56:45 PM 39.7620 -82.9840 204° Southwest 168 193 4,000 2,000 Climbing FlightAware ADS-B
Thu 11:56:54 PM 39.7500 -82.9870 191° South 285 328 4,400 3,659 Climbing FlightAware ADS-B
Thu 11:57:26 PM 39.7130 -82.9640 154° Southeast 280 322 6,500 4,098 Climbing FlightAware ADS-B
Thu 11:57:35 PM 39.7080 -82.9520 118° Southeast 288 331 7,200 5,250 Climbing FlightAware ADS-B
Thu 11:57:42 PM 39.7050 -82.9390 107° East 322 371 7,900 5,200 Climbing FlightAware ADS-B
Thu 11:57:50 PM 39.7030 -82.9250 101° East 330 380 8,500 3,333 Climbing FlightAware ADS-B
Thu 11:58:18 PM 39.7100 -82.8750 80° East 340 391 9,900 2,300 Climbing FlightAware ADS-B
Thu 11:58:50 PM 39.7250 -82.8140 72° East 336 387 10,800 2,029 Climbing FlightAware ADS-B
Thu 11:59:26 PM 39.7480 -82.7370 69° East 344 396 12,200 2,912 Climbing FlightAware ADS-B
Thu 11:59:58 PM 39.7700 -82.6630 69° East 389 448 14,100 3,514 Climbing FlightAware ADS-B
Fri 12:00:36 AM 39.7970 -82.5710 69° East 476 548 16,300 3,405 Climbing FlightAware ADS-B
Fri 12:01:12 AM 39.8230 -82.4820 69° East 487 560 18,300 3,182 Climbing FlightAware ADS-B
Fri 12:01:42 AM 39.8460 -82.4080 68° East 300 345 19,800 2,818 Climbing FlightAware ADS-B
Fri 12:02:18 AM 39.8740 -82.3130 69° East 373 429 21,400 2,595 Climbing FlightAware ADS-B
Fri 12:02:56 AM 39.9040 -82.2110 69° East 410 472 23,000 2,400 Climbing FlightAware ADS-B
Fri 12:03:33 AM 39.9310 -82.1170 69° East 488 562 24,400 2,609 Climbing FlightAware ADS-B
Fri 12:04:05 AM 39.9570 -82.0300 69° East 410 472 26,000 3,224 Climbing FlightAware ADS-B
Fri 12:04:40 AM 39.9870 -81.9240 70° East 459 528 28,000 3,041 Climbing FlightAware ADS-B
Fri 12:05:18 AM 40.0170 -81.8230 69° East 568 654 29,700 2,432 Climbing FlightAware ADS-B
Fri 12:05:54 AM 40.0460 -81.7240 69° East 547 629 31,000 1,164 Climbing FlightAware ADS-B
Fri 12:06:25 AM 40.0690 -81.6430 70° East 435 501 31,000  Level FlightAware ADS-B
Fri 12:07:00 AM 40.0970 -81.5460 69° East 304 350 31,000  Level FlightAware ADS-B
Fri 12:07:38 AM 40.1270 -81.4410 69° East 558 642 31,000  Level FlightAware ADS-B
Fri 12:08:11 AM 40.1520 -81.3530 70° East 448 516 31,000  Level FlightAware ADS-B
Fri 12:08:47 AM 40.1790 -81.2560 70° East 458 527 31,000  Level FlightAware ADS-B
Fri 12:09:22 AM 40.2070 -81.1590 69° East 568 654 31,000  Level FlightAware ADS-B
Fri 12:09:58 AM 40.2340 -81.0620 70° East 552 635 31,000  Level FlightAware ADS-B
Fri 12:10:32 AM 40.2600 -80.9690 70° East 552 635 31,000  Level FlightAware ADS-B
Fri 12:10:56 AM 40.2780 -80.9020 71° East 330 380 31,000  Level FlightAware ADS-B
Fri 12:11:30 AM 40.3040 -80.8090 70° East 340 391 31,000  Level FlightAware ADS-B
Fri 12:12:04 AM 40.3300 -80.7160 70° East 353 406 31,000  Level FlightAware ADS-B
Fri 12:12:45 AM 40.3610 -80.6050 70° East 447 514 31,000  Level FlightAware ADS-B
Fri 12:13:20 AM 40.3870 -80.5100 70° East 646 743 31,000  Level FlightAware ADS-B
Fri 12:13:57 AM 40.4150 -80.4070 70° East 514 592 31,000  Level FlightAware ADS-B
Fri 12:14:28 AM 40.4390 -80.3200 70° East 456 525 31,000  Level FlightAware ADS-B
Fri 12:15:05 AM 40.4660 -80.2190 71° East 370 426 31,000  Level FlightAware ADS-B
Fri 12:15:41 AM 40.4940 -80.1180 70° East 622 716 31,000  Level FlightAware ADS-B
Fri 12:16:12 AM 40.5170 -80.0320 71° East 385 443 31,000  Level FlightAware ADS-B
Fri 12:16:50 AM 40.5440 -79.9310 71° East 323 372 31,000  Level FlightAware ADS-B
Fri 12:17:22 AM 40.5690 -79.8370 71° East 438 504 31,000  Level FlightAware ADS-B
Fri 12:18:02 AM 40.5980 -79.7300 70° East 725 834 31,000  Level FlightAware ADS-B
Fri 12:18:34 AM 40.6220 -79.6380 71° East 483 556 31,000  Level FlightAware ADS-B
Fri 12:19:09 AM 40.6490 -79.5390 70° East 516 594 31,000  Level FlightAware ADS-B
Fri 12:19:46 AM 40.6750 -79.4380 71° East 603 694 31,000  Level FlightAware ADS-B
Fri 12:20:19 AM 40.7010 -79.3410 71° East 455 524 31,000  Level FlightAware ADS-B
Fri 12:20:53 AM 40.7260 -79.2440 71° East 499 574 31,000  Level FlightAware ADS-B
Fri 12:21:29 AM 40.7520 -79.1450 71° East 394 453 31,000  Level FlightAware ADS-B
Fri 12:21:59 AM 40.7740 -79.0580 72° East 334 384 31,000  Level FlightAware ADS-B
Fri 12:22:41 AM 40.7950 -78.9410 77° East 559 643 31,000  Level FlightAware ADS-B
Fri 12:23:11 AM 40.7990 -78.8400 87° East 613 705 31,000  Level FlightAware ADS-B
Fri 12:23:48 AM 40.8020 -78.7370 88° East 492 566 31,000  Level FlightAware ADS-B
Fri 12:24:23 AM 40.8060 -78.6200 87° East 656 755 31,000  Level FlightAware ADS-B
Fri 12:24:58 AM 40.8100 -78.5110 87° East 562 647 31,000  Level FlightAware ADS-B
Fri 12:25:48 AM 40.8160 -78.3450 87° East 398 458 31,000  Level FlightAware ADS-B
Fri 12:26:28 AM 40.8200 -78.2180 88° East 539 620 31,000  Level FlightAware ADS-B
Fri 12:27:08 AM 40.8250 -78.0860 87° East 711 818 31,000  Level FlightAware ADS-B
Fri 12:27:38 AM 40.8280 -77.9890 88° East 445 512 31,000  Level FlightAware ADS-B
Fri 12:28:13 AM 40.8310 -77.8750 88° East 339 390 31,000  Level FlightAware ADS-B
Fri 12:28:48 AM 40.8340 -77.7600 88° East 656 755 31,000  Level FlightAware ADS-B
Fri 12:29:23 AM 40.8380 -77.6490 87° East 383 441 31,000  Level FlightAware ADS-B
Fri 12:29:58 AM 40.8410 -77.5370 88° East 415 478 31,000  Level FlightAware ADS-B
Fri 12:30:42 AM 40.8449 -77.3763 88° East 531 611 31,000  Level FlightAware ADS-B
Fri 12:31:14 AM 40.8474 -77.2756 88° East 522 601 31,000  Level FlightAware ADS-B
Fri 12:31:44 AM 40.8496 -77.1796 88° East 519 597 31,000  Level FlightAware ADS-B
Fri 12:32:16 AM 40.8521 -77.0765 88° East 522 601 31,000  Level FlightAware ADS-B
Fri 12:32:47 AM 40.8542 -76.9793 88° East 521 600 31,000  Level FlightAware ADS-B
Fri 12:33:17 AM 40.8563 -76.8851 88° East 511 588 31,000 -100 Level FlightAware ADS-B
Fri 12:33:47 AM 40.8582 -76.7905 88° East 514 592 30,900 -1,300 Descending FlightAware ADS-B
Fri 12:34:17 AM 40.8600 -76.6951 89° East 515 593 29,700 -2,557 Descending FlightAware ADS-B
Fri 12:34:48 AM 40.8621 -76.5987 88° East 508 585 28,300 -2,459 Descending FlightAware ADS-B
Fri 12:35:18 AM 40.8636 -76.5029 89° East 528 608 27,200 -2,164 Descending FlightAware ADS-B
Fri 12:35:49 AM 40.8652 -76.4075 89° East 511 588 26,100 -2,066 Descending FlightAware ADS-B
Fri 12:36:19 AM 40.8668 -76.3136 89° East 500 575 25,100 -2,164 Descending FlightAware ADS-B
Fri 12:36:50 AM 40.8683 -76.2223 89° East 485 558 23,900 -2,190 Descending FlightAware ADS-B
Fri 12:37:22 AM 40.8695 -76.1296 89° East 471 542 22,800 -2,095 Descending FlightAware ADS-B
Fri 12:37:53 AM 40.8709 -76.0414 89° East 465 535 21,700 -2,032 Descending FlightAware ADS-B
Fri 12:38:24 AM 40.8721 -75.9540 89° East 478 550 20,700 -2,066 Descending FlightAware ADS-B
Fri 12:38:54 AM 40.8729 -75.8704 89° East 435 501 19,600 -2,200 Descending FlightAware ADS-B
Fri 12:39:24 AM 40.8738 -75.7878 89° East 435 501 18,500 -2,066 Descending FlightAware ADS-B
Fri 12:39:55 AM 40.8748 -75.7070 89° East 424 488 17,500 -2,066 Descending FlightAware ADS-B
Fri 12:40:25 AM 40.8755 -75.6285 89° East 423 487 16,400 -2,100 Descending FlightAware ADS-B
Fri 12:40:55 AM 40.8762 -75.5504 89° East 420 483 15,400 -2,066 Descending FlightAware ADS-B
Fri 12:41:26 AM 40.8769 -75.4757 89° East 389 448 14,300 -2,066 Descending FlightAware ADS-B
Fri 12:41:56 AM 40.8777 -75.4009 89° East 404 465 13,300 -2,100 Descending FlightAware ADS-B
Fri 12:42:26 AM 40.8783 -75.3267 89° East 408 470 12,200 -2,129 Descending FlightAware ADS-B
Fri 12:42:58 AM 40.8789 -75.2517 89° East 393 452 11,100 -2,129 Descending FlightAware ADS-B
Fri 12:43:28 AM 40.8794 -75.1807 89° East 370 426 10,000 -1,565 Descending FlightAware ADS-B
Fri 12:43:44 AM 40.8793 -75.1472 90° East 348 400 9,900 -1,636 Descending FlightAware ADS-B
Fri 12:44:01 AM 40.8783 -75.1123 92° East 339 390 9,100 -2,063 Descending FlightAware ADS-B
Fri 12:44:16 AM 40.8744 -75.0821 100° East 336 387 8,800 -387 Descending FlightAware ADS-B
Fri 12:44:32 AM 40.8676 -75.0538 108° East 305 351 8,900  Climbing FlightAware ADS-B
Fri 12:44:49 AM 40.8589 -75.0246 111° Southeast 301 346 8,800 -882 Descending FlightAware ADS-B
Fri 12:45:06 AM 40.8497 -74.9966 113° Southeast 290 334 8,400 -1,500 Descending FlightAware ADS-B
Fri 12:45:21 AM 40.8414 -74.9703 113° Southeast 311 358 8,000 -1,400 Descending FlightAware ADS-B
Fri 12:45:36 AM 40.8336 -74.9451 112° Southeast 295 339 7,700 -1,161 Descending FlightAware ADS-B
Fri 12:45:52 AM 40.8262 -74.9190 111° Southeast 292 336 7,400 -938 Descending FlightAware ADS-B
Fri 12:46:08 AM 40.8242 -74.8911 95° East 284 327 7,200 -581 Descending FlightAware ADS-B
Fri 12:46:23 AM 40.8278 -74.8641 80° East 295 339 7,100 -194 Descending FlightAware ADS-B
Fri 12:46:39 AM 40.8319 -74.8382 78° East 290 334 7,100  Level FlightAware ADS-B
Fri 12:46:54 AM 40.8359 -74.8114 79° East 303 349 7,100  Level FlightAware ADS-B
Fri 12:47:09 AM 40.8398 -74.7843 79° East 287 330 7,100  Level FlightAware ADS-B
Fri 12:47:28 AM 40.8449 -74.7518 78° East 299 344 7,100  Level FlightAware ADS-B
Fri 12:48:05 AM 40.8551 -74.6868 78° East 295 339 7,100  Level FlightAware ADS-B
Fri 12:48:22 AM 40.8599 -74.6571 78° East 298 343 7,100 -750 Level FlightAware ADS-B
Fri 12:48:37 AM 40.8642 -74.6305 78° East 285 328 6,700 -1,600 Descending FlightAware ADS-B
Fri 12:48:52 AM 40.8683 -74.6045 78° East 293 337 6,300 -1,600 Descending FlightAware ADS-B
Fri 12:49:07 AM 40.8721 -74.5788 79° East 287 330 5,900 -1,355 Descending FlightAware ADS-B
Fri 12:49:23 AM 40.8762 -74.5523 78° East 291 335 5,600 -1,161 Descending FlightAware ADS-B
Fri 12:49:38 AM 40.8799 -74.5261 79° East 289 333 5,300 -968 Descending FlightAware ADS-B
Fri 12:49:54 AM 40.8837 -74.5009 79° East 281 323 5,100 -364 Descending FlightAware ADS-B
Fri 12:50:11 AM 40.8880 -74.4717 79° East 275 316 5,100  Level FlightAware ADS-B
Fri 12:50:27 AM 40.8920 -74.4453 79° East 267 307 5,100  Level FlightAware ADS-B
Fri 12:50:47 AM 40.8971 -74.4117 79° East 278 320 5,100  Level FlightAware ADS-B
Fri 12:51:16 AM 40.9047 -74.3634 78° East 278 320 5,100  Level FlightAware ADS-B
Fri 12:51:48 AM 40.9130 -74.3110 78° East 279 321 5,100 -109 Level FlightAware ADS-B
Fri 12:52:11 AM 40.9180 -74.2750 80° East 229 264 5,000 -419 Descending FlightAware ADS-B
Fri 12:52:31 AM 40.9220 -74.2470 79° East 204 235 4,800 -882 Descending FlightAware ADS-B
Fri 12:52:45 AM 40.9250 -74.2260 79° East 233 268 4,500 -1,143 Descending FlightAware ADS-B
Fri 12:52:52 AM 40.9250 -74.2180 90° East 252 290 4,400 -1,241 Descending FlightAware ADS-B
Fri 12:53:14 AM 40.9190 -74.1840 103° East 272 313 3,900 -1,286 Descending FlightAware ADS-B
Fri 12:53:34 AM 40.9120 -74.1570 109° East 194 223 3,500 -1,125 Descending FlightAware ADS-B
Fri 12:53:46 AM 40.9070 -74.1410 112° Southeast 218 251 3,300 -1,000 Descending FlightAware ADS-B
Fri 12:53:52 AM 40.9030 -74.1330 123° Southeast 183 211 3,200 -750 Descending FlightAware ADS-B
Fri 12:54:02 AM 40.8940 -74.1240 143° Southeast 264 304 3,100 -194 Descending FlightAware ADS-B
Fri 12:54:23 AM 40.8790 -74.1090 143° Southeast 194 223 3,100  Level FlightAware ADS-B
Fri 12:54:38 AM 40.8670 -74.0990 148° Southeast 205 236 3,100  Level FlightAware ADS-B
Fri 12:54:46 AM 40.8610 -74.0940 148° Southeast 292 336 3,100 -300 Level FlightAware ADS-B
Fri 12:54:58 AM 40.8500 -74.0910 168° South 174 200 3,000 -938 Descending FlightAware ADS-B
Fri 12:55:18 AM 40.8340 -74.0880 172° South 202 232 2,600 -1,200 Descending FlightAware ADS-B
Fri 12:55:28 AM 40.8240 -74.0870 176° South 145 167 2,400 -789 Descending FlightAware ADS-B
Fri 12:55:56 AM 40.8030 -74.0970 200° South 230 265 2,100 -500 Descending FlightAware ADS-B
Fri 12:56:16 AM 40.7910 -74.1050 207° Southwest 118 136 2,000 -500 Descending FlightAware ADS-B
Fri 12:56:32 AM 40.7790 -74.1130 207° Southwest 194 223 1,800 -833 Descending FlightAware ADS-B
Fri 12:56:52 AM 40.7660 -74.1200 202° Southwest 183 211 1,500 -750 Descending FlightAware ADS-B
Fri 12:57:04 AM 40.7590 -74.1250 208° Southwest 123 142 1,400 -643 Descending FlightAware ADS-B
Fri 12:57:20 AM 40.7500 -74.1310 207° Southwest 146 168 1,200 -692 Descending FlightAware ADS-B
Fri 12:57:30 AM 40.7450 -74.1350 211° Southwest 97 112 1,100 -667 Descending FlightAware ADS-B
Fri 12:57:47 AM 40.7350 -74.1410 204° Southwest 159 183 900 -706 Descending FlightAware ADS-B
Fri 01:06:00 AM 40.6925 -74.1687 180° South  Level Estimated
Fri 01:07:00 AM 40.6925 -74.1687 180° South  Level Estimated

Login

Don't have an account? Register now (free) for customized features, flight alerts, and more!